Time;durP1;ratioP1;P1;durP2;ratioP2;P2;SDS_P1;SDS_P2;PMS_P1;PMS_P2;Temp;Humidity;BMP_temperature;BMP_pressure;BME280_temperature;BME280_humidity;BME280_pressure;Samples;Min_cycle;Max_cycle;Signal;HPM_P1;HPM_P2
2022/03/01 00:00:15;;;;;;;19.88;13.40;;;;;;;0.97;76.84;103072.94;4991465;28;20169;-46
2022/03/01 00:02:44;;;;;;;22.38;12.38;;;;;;;0.92;77.22;103068.31;4991355;28;20193;-48
2022/03/01 00:05:10;;;;;;;17.02;11.35;;;;;;;0.94;76.96;103067.53;4991367;28;20212;-48
2022/03/01 00:07:35;;;;;;;18.48;11.90;;;;;;;1.00;76.53;103058.94;4991584;28;20193;-47
2022/03/01 00:10:01;;;;;;;17.67;11.05;;;;;;;0.94;76.06;103058.72;4990412;28;20173;-47
2022/03/01 00:12:26;;;;;;;18.05;12.40;;;;;;;0.89;76.55;103066.44;4989928;28;20197;-48
2022/03/01 00:14:52;;;;;;;15.88;10.90;;;;;;;0.87;76.23;103054.94;4991290;28;20522;-44
2022/03/01 00:17:18;;;;;;;17.88;11.45;;;;;;;0.85;76.43;103055.72;4991161;28;20621;-48
2022/03/01 00:19:43;;;;;;;19.48;11.63;;;;;;;0.85;76.13;103058.38;4991801;28;20247;-48
2022/03/01 00:22:09;;;;;;;17.20;11.05;;;;;;;0.84;76.08;103075.94;4990319;28;20208;-46
2022/03/01 00:24:34;;;;;;;17.35;11.40;;;;;;;0.89;75.42;103058.53;4991093;28;20183;-46
2022/03/01 00:26:59;;;;;;;17.52;11.13;;;;;;;0.93;74.65;103064.84;4991274;28;20177;-48
2022/03/01 00:29:25;;;;;;;16.90;10.32;;;;;;;0.94;75.17;103066.63;4973954;28;20204;-47
2022/03/01 00:31:51;;;;;;;19.92;11.18;;;;;;;0.87;74.77;103072.53;4990780;28;20201;-46
2022/03/01 00:34:16;;;;;;;17.20;10.93;;;;;;;0.85;74.68;103063.66;4990830;28;20701;-48
2022/03/01 00:36:42;;;;;;;17.02;10.65;;;;;;;0.86;74.65;103060.19;4990714;28;20189;-46
2022/03/01 00:39:08;;;;;;;15.52;9.73;;;;;;;0.89;73.98;103071.72;4991122;28;20200;-47
2022/03/01 00:41:33;;;;;;;15.85;10.85;;;;;;;0.86;74.22;103063.72;4990185;28;20197;-45
2022/03/01 00:43:59;;;;;;;15.75;10.25;;;;;;;0.90;73.67;103059.47;4990887;28;20174;-47
2022/03/01 00:46:26;;;;;;;17.30;10.00;;;;;;;0.86;73.62;103062.81;4990843;28;20225;-47
2022/03/01 00:48:56;;;;;;;15.32;9.85;;;;;;;0.85;73.14;103050.44;4990629;28;20185;-46
2022/03/01 00:51:21;;;;;;;15.45;9.90;;;;;;;0.86;72.67;103057.53;4990814;28;20196;-45
2022/03/01 00:53:47;;;;;;;14.73;9.50;;;;;;;0.88;72.28;103062.03;4990350;28;20162;-48
2022/03/01 00:56:12;;;;;;;14.15;9.30;;;;;;;0.82;72.67;103049.50;4990827;28;20189;-47
2022/03/01 00:58:37;;;;;;;15.60;9.85;;;;;;;0.78;72.71;103052.84;4990843;28;20185;-47
2022/03/01 01:01:03;;;;;;;14.52;10.00;;;;;;;0.79;72.23;103057.31;4990356;28;20205;-49
2022/03/01 01:03:29;;;;;;;16.20;9.40;;;;;;;0.82;71.58;103046.84;4990131;28;20177;-49
2022/03/01 01:05:54;;;;;;;14.77;9.13;;;;;;;0.77;71.74;103051.06;4989598;28;20200;-47
2022/03/01 01:08:21;;;;;;;14.55;9.40;;;;;;;0.76;70.96;103045.72;4990707;28;20210;-45
2022/03/01 01:10:47;;;;;;;13.55;9.15;;;;;;;0.81;70.95;103042.44;4990616;28;20278;-45
2022/03/01 01:13:14;;;;;;;16.55;9.55;;;;;;;0.79;71.05;103044.13;4990069;28;20208;-48
2022/03/01 01:15:40;;;;;;;14.95;9.68;;;;;;;0.81;70.64;103031.88;4990609;28;20224;-47
2022/03/01 01:18:05;;;;;;;14.20;9.50;;;;;;;0.76;70.74;103033.44;4990200;28;20217;-47
2022/03/01 01:20:31;;;;;;;12.75;8.95;;;;;;;0.74;70.58;103028.94;4990555;28;20165;-46
2022/03/01 01:22:56;;;;;;;13.90;9.15;;;;;;;0.71;70.60;103029.72;4990150;28;20181;-46
2022/03/01 01:25:24;;;;;;;13.90;9.40;;;;;;;0.74;69.82;103035.09;4990344;28;20204;-47
2022/03/01 01:27:59;;;;;;;16.08;9.68;;;;;;;0.76;69.96;103036.06;4990533;28;20169;-45
2022/03/01 01:30:26;;;;;;;14.23;9.20;;;;;;;0.72;70.25;103026.25;4990427;28;20173;-47
2022/03/01 01:32:52;;;;;;;15.07;8.75;;;;;;;0.72;69.51;103028.91;4989958;28;20579;-47
2022/03/01 01:35:21;;;;;;;14.98;9.25;;;;;;;0.66;69.69;103025.13;4990588;28;20580;-47
2022/03/01 01:37:47;;;;;;;13.35;8.30;;;;;;;0.64;70.06;103021.53;4990130;28;20681;-46
2022/03/01 01:40:22;;;;;;;15.35;9.00;;;;;;;0.66;69.63;103017.22;4990594;28;20221;-48
2022/03/01 01:42:49;;;;;;;12.07;8.77;;;;;;;0.60;70.28;103023.16;4989654;28;20214;-46
2022/03/01 01:45:15;;;;;;;13.82;8.70;;;;;;;0.63;69.61;103014.44;4990170;28;20193;-46
2022/03/01 01:47:41;;;;;;;14.20;8.73;;;;;;;0.65;69.71;103021.56;4990415;28;20204;-46
2022/03/01 01:50:08;;;;;;;14.02;8.65;;;;;;;0.67;69.60;103017.25;4990189;28;20207;-46
2022/03/01 01:52:33;;;;;;;12.88;9.05;;;;;;;0.65;69.23;103010.13;4989891;28;20910;-46
2022/03/01 01:54:59;;;;;;;14.20;9.05;;;;;;;0.58;70.13;103024.81;4990137;28;20165;-47
2022/03/01 01:57:25;;;;;;;12.90;8.55;;;;;;;0.56;69.99;103011.56;4990019;28;20316;-47
2022/03/01 01:59:53;;;;;;;17.40;9.07;;;;;;;0.57;69.83;103025.69;4989976;28;20629;-47
2022/03/01 02:02:21;;;;;;;15.13;9.43;;;;;;;0.55;69.75;103030.00;4989412;28;20197;-48
2022/03/01 02:04:47;;;;;;;15.18;9.52;;;;;;;0.48;70.22;103017.38;4990374;28;20169;-44
2022/03/01 02:07:13;;;;;;;13.75;8.85;;;;;;;0.53;69.97;103034.31;4989832;28;20173;-45
2022/03/01 02:09:39;;;;;;;14.10;8.98;;;;;;;0.57;69.90;103015.13;4990334;28;20537;-45
2022/03/01 02:12:05;;;;;;;13.02;8.88;;;;;;;0.55;70.11;103004.50;4989412;28;20190;-44
2022/03/01 02:14:32;;;;;;;16.60;8.93;;;;;;;0.49;69.80;103025.38;4990103;28;20268;-44
2022/03/01 02:16:59;;;;;;;13.32;8.75;;;;;;;0.40;70.12;103019.75;4991238;28;20193;-46
2022/03/01 02:19:25;;;;;;;13.45;8.65;;;;;;;0.39;70.94;103012.66;4993282;28;20544;-46
2022/03/01 02:21:55;;;;;;;15.65;9.38;;;;;;;0.33;71.17;103010.69;4992922;28;20200;-47
2022/03/01 02:24:22;;;;;;;14.80;9.25;;;;;;;0.37;70.61;103014.34;4993241;28;20192;-44
2022/03/01 02:26:48;;;;;;;14.85;8.93;;;;;;;0.42;70.86;103015.44;4993180;28;20185;-48
2022/03/01 02:29:13;;;;;;;17.25;10.00;;;;;;;0.41;70.53;103003.06;4993391;28;20173;-46
2022/03/01 02:31:39;;;;;;;16.13;9.52;;;;;;;0.36;70.79;103016.09;4992963;28;20256;-46
2022/03/01 02:34:05;;;;;;;12.68;8.63;;;;;;;0.30;70.36;103007.94;4992859;28;20244;-46
2022/03/01 02:36:31;;;;;;;14.45;9.07;;;;;;;0.35;70.18;103006.38;4993073;28;20186;-47
2022/03/01 02:38:57;;;;;;;16.33;9.73;;;;;;;0.32;70.17;102995.69;4993065;28;20185;-45
2022/03/01 02:41:24;;;;;;;17.73;8.55;;;;;;;0.34;70.53;102987.84;4983722;28;20198;-45
2022/03/01 02:43:50;;;;;;;13.20;8.85;;;;;;;0.29;70.21;102992.06;4991454;28;20560;-45
2022/03/01 02:46:15;;;;;;;13.75;8.90;;;;;;;0.21;70.84;102991.75;4975465;28;20178;-45
2022/03/01 02:48:42;;;;;;;16.15;9.02;;;;;;;0.22;70.63;102985.66;4992647;28;20207;-47
2022/03/01 02:51:07;;;;;;;13.70;8.95;;;;;;;0.26;70.61;102984.03;4992704;28;20300;-48
2022/03/01 02:53:34;;;;;;;14.32;8.32;;;;;;;0.17;71.02;102988.09;4992218;28;20653;-48
2022/03/01 02:56:00;;;;;;;16.55;9.15;;;;;;;0.10;71.51;102986.06;4992103;28;20170;-48
2022/03/01 02:58:25;;;;;;;15.50;9.07;;;;;;;0.14;71.27;102982.72;4991531;28;20176;-46
2022/03/01 03:00:51;;;;;;;14.93;8.77;;;;;;;0.16;70.95;102985.41;4992008;28;20189;-46
2022/03/01 03:03:16;;;;;;;12.98;8.82;;;;;;;0.10;71.05;102993.06;4991791;28;20177;-44
2022/03/01 03:05:42;;;;;;;16.33;8.93;;;;;;;0.08;71.15;102990.38;4992233;28;20731;-48
2022/03/01 03:08:07;;;;;;;16.73;9.38;;;;;;;0.05;70.90;102989.38;4992414;28;20177;-47
2022/03/01 03:10:34;;;;;;;15.57;9.35;;;;;;;0.05;71.02;102994.63;4992189;28;20655;-45
2022/03/01 03:13:01;;;;;;;14.82;8.98;;;;;;;0.00;71.51;102999.72;4991854;28;20169;-45
2022/03/01 03:15:27;;;;;;;12.63;8.23;;;;;;;-0.02;71.32;103001.41;4992647;28;20161;-45
2022/03/01 03:17:53;;;;;;;15.70;9.10;;;;;;;-0.07;70.96;103002.94;4991967;28;20189;-47
2022/03/01 03:20:18;;;;;;;17.10;9.40;;;;;;;-0.04;70.79;102984.63;4992321;28;20193;-46
2022/03/01 03:22:44;;;;;;;13.45;9.25;;;;;;;-0.08;71.01;102987.97;4991901;28;20542;-48
2022/03/01 03:25:10;;;;;;;15.48;9.45;;;;;;;-0.05;71.02;102996.88;4991851;28;20550;-45
2022/03/01 03:27:35;;;;;;;15.65;9.15;;;;;;;-0.06;70.36;102997.72;4991433;28;20207;-46
2022/03/01 03:30:03;;;;;;;13.98;9.10;;;;;;;-0.13;71.28;102989.50;4991658;28;20257;-48
2022/03/01 03:32:29;;;;;;;16.27;9.93;;;;;;;-0.13;70.52;102992.13;4991017;28;20205;-48
2022/03/01 03:34:55;;;;;;;12.73;8.48;;;;;;;-0.10;70.48;102994.91;4992003;28;20177;-46
2022/03/01 03:37:20;;;;;;;15.25;9.25;;;;;;;-0.20;70.65;102983.09;4983558;28;20198;-47
2022/03/01 03:39:45;;;;;;;16.23;8.77;;;;;;;-0.17;70.67;102993.75;4972916;28;20181;-45
2022/03/01 03:42:11;;;;;;;15.90;9.38;;;;;;;-0.18;70.90;103010.38;4971757;28;20198;-46
2022/03/01 03:44:38;;;;;;;13.15;8.73;;;;;;;-0.11;70.38;103004.56;4972459;28;20209;-48
2022/03/01 03:47:04;;;;;;;14.63;8.77;;;;;;;-0.27;70.82;103017.91;4972503;28;20261;-48
2022/03/01 03:49:29;;;;;;;17.23;9.55;;;;;;;-0.30;70.94;103008.16;4972304;28;20717;-46
2022/03/01 03:51:55;;;;;;;14.15;9.00;;;;;;;-0.35;71.10;103001.81;4972027;28;20217;-46
2022/03/01 03:54:21;;;;;;;12.90;8.65;;;;;;;-0.52;71.67;103008.09;4972069;28;20554;-45
2022/03/01 03:56:46;;;;;;;13.35;8.40;;;;;;;-0.49;71.82;102993.31;4972081;28;20197;-46
2022/03/01 03:59:11;;;;;;;13.75;8.60;;;;;;;-0.46;71.57;103001.38;4972441;28;20594;-48
2022/03/01 04:01:37;;;;;;;15.35;8.52;;;;;;;-0.46;71.57;103000.44;4972099;28;20209;-48
2022/03/01 04:04:02;;;;;;;12.55;8.63;;;;;;;-0.51;70.97;102994.97;4971788;28;20257;-49
2022/03/01 04:06:28;;;;;;;14.15;8.82;;;;;;;-0.54;71.56;102981.69;4954567;28;20801;-48
2022/03/01 04:08:53;;;;;;;15.98;10.20;;;;;;;-0.54;72.10;102986.97;4971775;28;20185;-45
2022/03/01 04:11:19;;;;;;;14.00;9.30;;;;;;;-0.54;71.87;102989.59;4971964;28;20205;-44
2022/03/01 04:13:44;;;;;;;18.17;9.27;;;;;;;-0.57;71.60;102994.72;4971572;28;20589;-46
2022/03/01 04:16:09;;;;;;;17.10;8.35;;;;;;;-0.58;71.47;102985.03;4972018;28;20202;-49
2022/03/01 04:18:35;;;;;;;16.85;8.98;;;;;;;-0.63;71.61;102982.22;4971610;28;20178;-51
2022/03/01 04:21:01;;;;;;;13.10;8.80;;;;;;;-0.57;71.45;102971.03;4971803;28;20224;-44
2022/03/01 04:23:27;;;;;;;16.13;8.98;;;;;;;-0.56;71.58;102978.09;4971441;28;20218;-45
2022/03/01 04:25:53;;;;;;;16.00;9.65;;;;;;;-0.62;70.85;102957.66;4971796;28;20174;-49
2022/03/01 04:28:19;;;;;;;15.20;9.43;;;;;;;-0.60;71.68;102955.09;4971844;28;20267;-45
2022/03/01 04:30:45;;;;;;;14.98;8.82;;;;;;;-0.62;70.90;102949.78;4971240;28;20202;-46
2022/03/01 04:33:10;;;;;;;15.45;8.70;;;;;;;-0.59;71.12;102943.75;4954097;28;20216;-47
2022/03/01 04:35:36;;;;;;;14.00;9.10;;;;;;;-0.55;70.86;102957.94;4969821;28;20252;-45
2022/03/01 04:38:03;;;;;;;13.90;7.63;;;;;;;-0.57;70.23;102964.88;4971943;28;20194;-44
2022/03/01 04:40:28;;;;;;;13.48;8.15;;;;;;;-0.55;70.63;102966.72;4954260;28;20693;-45
2022/03/01 04:42:53;;;;;;;14.18;8.65;;;;;;;-0.58;70.71;102965.72;4988146;28;20204;-46
2022/03/01 04:45:19;;;;;;;16.25;8.77;;;;;;;-0.62;70.70;102962.94;4990881;28;20173;-46
2022/03/01 04:47:44;;;;;;;15.80;8.52;;;;;;;-0.56;70.39;102964.03;4990184;28;20180;-47
2022/03/01 04:50:11;;;;;;;14.93;8.75;;;;;;;-0.65;70.66;102949.66;4999502;28;20221;-46
2022/03/01 04:52:37;;;;;;;14.10;8.48;;;;;;;-0.68;70.93;102943.34;4992519;28;20279;-47
2022/03/01 04:55:03;;;;;;;15.13;8.63;;;;;;;-0.68;70.71;102956.50;4990150;28;20591;-46
2022/03/01 04:57:28;;;;;;;16.05;9.05;;;;;;;-0.73;71.01;102948.44;4990636;28;20529;-47
2022/03/01 04:59:53;;;;;;;15.80;9.10;;;;;;;-0.78;70.88;102933.28;4991029;28;20199;-48
2022/03/01 05:02:19;;;;;;;17.73;9.00;;;;;;;-0.79;71.15;102942.91;4992903;28;20197;-46
2022/03/01 05:04:44;;;;;;;15.27;8.50;;;;;;;-0.82;72.03;102947.16;4972438;28;20192;-46
2022/03/01 05:07:10;;;;;;;13.77;8.98;;;;;;;-0.78;71.63;102930.66;4989780;28;20169;-45
2022/03/01 05:09:35;;;;;;;14.73;9.10;;;;;;;-0.78;71.58;102935.94;4990367;28;20716;-45
2022/03/01 05:12:01;;;;;;;14.20;8.18;;;;;;;-0.82;71.43;102936.63;4989583;28;20399;-47
2022/03/01 05:14:26;;;;;;;13.43;8.48;;;;;;;-0.86;71.77;102923.31;4990283;28;20228;-45
2022/03/01 05:16:52;;;;;;;13.98;8.52;;;;;;;-0.84;71.45;102912.88;4990213;28;20189;-47
2022/03/01 05:19:17;;;;;;;16.42;8.98;;;;;;;-0.82;71.61;102927.00;4990169;28;20200;-43
2022/03/01 05:21:43;;;;;;;15.05;9.35;;;;;;;-0.85;71.59;102922.50;4989916;28;20198;-45
2022/03/01 05:24:09;;;;;;;16.30;8.55;;;;;;;-0.87;72.16;102926.78;4990431;28;20177;-47
2022/03/01 05:26:34;;;;;;;15.55;9.30;;;;;;;-0.84;71.54;102940.06;4990340;28;20239;-45
2022/03/01 05:29:00;;;;;;;18.48;9.52;;;;;;;-0.87;72.27;102931.16;4990409;28;20221;-49
2022/03/01 05:31:25;;;;;;;14.77;9.15;;;;;;;-0.90;72.04;102931.00;4989687;28;20197;-47
2022/03/01 05:33:52;;;;;;;13.52;8.95;;;;;;;-0.92;72.70;102936.25;4989932;28;20176;-48
2022/03/01 05:36:18;;;;;;;14.60;9.60;;;;;;;-0.93;72.43;102925.63;4990108;28;20296;-48
2022/03/01 05:38:44;;;;;;;14.77;8.77;;;;;;;-0.98;72.25;102922.81;4970872;28;20321;-47
2022/03/01 05:41:10;;;;;;;15.00;8.75;;;;;;;-0.97;72.63;102921.97;4970832;28;20218;-47
2022/03/01 05:43:37;;;;;;;14.55;8.90;;;;;;;-1.00;72.17;102911.31;4970055;28;20225;-48
2022/03/01 05:46:03;;;;;;;13.93;9.55;;;;;;;-1.00;72.94;102923.59;4970627;28;20779;-46
2022/03/01 05:48:28;;;;;;;14.40;9.23;;;;;;;-0.98;72.81;102935.06;4970955;28;20184;-50
2022/03/01 05:50:54;;;;;;;17.05;9.77;;;;;;;-1.04;73.21;102920.81;4970712;28;20190;-47
2022/03/01 05:53:20;;;;;;;15.07;9.25;;;;;;;-1.04;73.48;102933.06;4973910;28;20264;-48
2022/03/01 05:55:46;;;;;;;17.60;10.57;;;;;;;-1.08;73.41;102936.38;4973772;28;20721;-47
2022/03/01 05:58:11;;;;;;;13.85;9.20;;;;;;;-1.10;74.12;102919.63;4974118;28;20257;-49
2022/03/01 06:00:37;;;;;;;15.30;9.13;;;;;;;-1.08;73.90;102931.13;4973742;28;20274;-46
2022/03/01 06:03:03;;;;;;;14.02;9.25;;;;;;;-1.11;73.64;102928.38;4973748;28;20177;-49
2022/03/01 06:05:29;;;;;;;14.52;8.90;;;;;;;-1.08;74.37;102936.38;4973585;28;20195;-47
2022/03/01 06:07:55;;;;;;;17.30;9.32;;;;;;;-1.10;73.54;102933.69;4973695;28;20520;-47
2022/03/01 06:10:21;;;;;;;16.58;9.88;;;;;;;-1.17;73.92;102929.00;4973912;28;20606;-47
2022/03/01 06:12:47;;;;;;;14.15;9.35;;;;;;;-1.15;74.12;102926.44;4973359;28;20232;-48
2022/03/01 06:15:12;;;;;;;19.35;9.65;;;;;;;-1.14;73.84;102944.91;4973607;28;20210;-46
2022/03/01 06:17:38;;;;;;;17.45;10.18;;;;;;;-1.19;73.86;102942.91;4973474;28;20345;-46
2022/03/01 06:20:04;;;;;;;15.35;9.23;;;;;;;-1.20;74.45;102939.41;4973617;28;20649;-47
2022/03/01 06:22:30;;;;;;;16.45;9.80;;;;;;;-1.23;74.57;102936.63;4973076;28;20190;-46
2022/03/01 06:24:55;;;;;;;14.25;9.43;;;;;;;-1.15;74.47;102952.75;4973403;28;20686;-47
2022/03/01 06:27:22;;;;;;;14.82;9.27;;;;;;;-1.15;74.58;102944.84;4973651;28;20166;-49
2022/03/01 06:29:47;;;;;;;14.95;9.77;;;;;;;-1.12;73.75;102951.13;4973488;28;20229;-49
2022/03/01 06:32:13;;;;;;;17.38;9.82;;;;;;;-1.19;74.58;102946.44;4972406;28;20296;-48
2022/03/01 06:34:38;;;;;;;15.90;9.77;;;;;;;-1.16;74.32;102950.94;4973372;28;20176;-46
2022/03/01 06:37:04;;;;;;;17.67;9.75;;;;;;;-1.14;74.42;102965.06;4973290;28;20269;-48
2022/03/01 06:39:29;;;;;;;15.18;9.30;;;;;;;-1.15;74.60;102965.91;4973426;28;20189;-47
2022/03/01 06:41:55;;;;;;;14.85;9.63;;;;;;;-1.17;74.77;102963.19;4972885;28;20701;-47
2022/03/01 06:44:20;;;;;;;14.63;9.55;;;;;;;-1.12;74.02;102977.44;4973101;28;20174;-49
2022/03/01 06:46:46;;;;;;;15.70;9.90;;;;;;;-1.05;74.78;102974.25;4955707;28;20170;-46
2022/03/01 06:49:11;;;;;;;20.20;13.05;;;;;;;-1.13;74.98;102978.28;4972892;28;20641;-46
2022/03/01 06:51:36;;;;;;;14.70;8.98;;;;;;;-1.14;74.41;102986.97;4972701;28;20217;-48
2022/03/01 06:54:02;;;;;;;14.50;9.40;;;;;;;-1.08;74.40;102965.31;4972561;28;20233;-46
2022/03/01 06:56:27;;;;;;;14.60;9.38;;;;;;;-0.86;75.15;102956.63;4973370;28;20252;-44
2022/03/01 06:58:53;;;;;;;17.23;10.13;;;;;;;-0.75;74.52;102951.84;4990292;28;20187;-46
2022/03/01 07:01:20;;;;;;;16.42;9.60;;;;;;;-0.65;73.57;102940.88;4973825;28;20684;-45
2022/03/01 07:03:45;;;;;;;14.27;9.10;;;;;;;-0.46;73.44;102922.38;4991596;28;20613;-45
2022/03/01 07:06:11;;;;;;;14.95;9.40;;;;;;;-0.42;73.02;102940.09;4992399;28;20252;-47
2022/03/01 07:08:37;;;;;;;16.83;10.27;;;;;;;-0.57;72.87;102936.78;4992495;28;20173;-47
2022/03/01 07:11:02;;;;;;;15.32;9.90;;;;;;;-0.50;72.94;102938.88;4992992;28;20203;-46
2022/03/01 07:13:27;;;;;;;15.40;9.65;;;;;;;-0.25;72.26;102943.38;4973838;28;20209;-48
2022/03/01 07:15:53;;;;;;;15.52;9.38;;;;;;;0.03;72.04;102947.13;4996195;28;20197;-47
2022/03/01 07:18:18;;;;;;;13.52;9.25;;;;;;;0.24;71.05;102943.50;5006402;28;20635;-49
2022/03/01 07:20:44;;;;;;;14.35;9.75;;;;;;;0.59;70.16;102945.75;5011113;28;20291;-49
2022/03/01 07:23:10;;;;;;;18.40;10.20;;;;;;;0.62;68.89;102934.41;5011328;28;20195;-48
2022/03/01 07:25:36;;;;;;;15.77;10.18;;;;;;;0.76;68.40;102945.47;5002983;28;20657;-47
2022/03/01 07:28:02;;;;;;;19.50;10.98;;;;;;;0.74;67.88;102947.16;5009477;28;20213;-45
2022/03/01 07:30:28;;;;;;;15.70;9.88;;;;;;;1.43;67.28;102931.09;4993924;28;20197;-48
2022/03/01 07:32:56;;;;;;;15.57;10.20;;;;;;;1.33;66.32;102934.25;5009810;28;20640;-47
2022/03/01 07:35:23;;;;;;;14.73;9.15;;;;;;;1.07;66.94;102943.91;5011387;28;20215;-46
2022/03/01 07:37:49;;;;;;;17.30;9.98;;;;;;;1.09;67.53;102934.31;4982999;28;20304;-46
2022/03/01 07:40:16;;;;;;;15.55;9.52;;;;;;;1.19;66.37;102936.44;5009035;28;20504;-45
2022/03/01 07:42:42;;;;;;;16.00;10.00;;;;;;;1.33;66.43;102928.97;5007201;28;20204;-46
2022/03/01 07:45:08;;;;;;;16.60;9.85;;;;;;;1.36;65.33;102922.06;4992342;28;20232;-45
2022/03/01 07:47:34;;;;;;;16.35;10.13;;;;;;;1.52;65.52;102927.84;4990466;28;20202;-47
2022/03/01 07:49:59;;;;;;;17.27;10.38;;;;;;;1.15;66.74;102924.84;4990899;28;20169;-44
2022/03/01 07:52:25;;;;;;;14.38;9.57;;;;;;;1.40;65.74;102923.03;4990795;28;20203;-46
2022/03/01 07:54:51;;;;;;;13.75;9.52;;;;;;;1.69;65.29;102929.28;4992161;28;20197;-48
2022/03/01 07:57:17;;;;;;;15.25;9.70;;;;;;;1.42;65.25;102926.63;4990741;28;20201;-46
2022/03/01 07:59:43;;;;;;;15.45;9.85;;;;;;;1.45;65.61;102926.75;4991776;28;20216;-47
2022/03/01 08:02:08;;;;;;;12.90;9.27;;;;;;;1.82;64.51;102926.19;4990644;28;20193;-47
2022/03/01 08:04:34;;;;;;;13.70;9.77;;;;;;;1.61;64.71;102918.47;4991320;28;20642;-45
2022/03/01 08:06:59;;;;;;;16.05;10.13;;;;;;;1.62;64.24;102917.63;4991254;28;20177;-46
2022/03/01 08:09:25;;;;;;;18.10;10.63;;;;;;;2.05;64.38;102913.66;4991084;28;20177;-47
2022/03/01 08:11:50;;;;;;;15.07;9.45;;;;;;;1.80;64.46;102917.31;4990020;28;20189;-44
2022/03/01 08:14:16;;;;;;;14.68;9.82;;;;;;;1.70;64.59;102915.22;4990076;28;20179;-47
2022/03/01 08:16:41;;;;;;;14.93;10.07;;;;;;;1.91;64.50;102907.06;4991046;28;20201;-47
2022/03/01 08:19:06;;;;;;;13.38;9.52;;;;;;;2.31;63.48;102916.22;4990848;28;20176;-43
2022/03/01 08:21:32;;;;;;;13.73;9.95;;;;;;;2.20;63.56;102909.72;4990867;28;20216;-47
2022/03/01 08:23:57;;;;;;;14.98;9.98;;;;;;;1.78;64.06;102907.56;4991119;28;20185;-46
2022/03/01 08:26:23;;;;;;;17.77;10.65;;;;;;;1.55;65.13;102914.72;4990521;28;20191;-43
2022/03/01 08:28:49;;;;;;;14.15;9.63;;;;;;;1.89;65.19;102903.50;4990655;28;20188;-46
2022/03/01 08:31:15;;;;;;;15.40;10.25;;;;;;;1.97;64.34;102915.22;4990487;28;20280;-44
2022/03/01 08:33:41;;;;;;;16.50;9.77;;;;;;;1.63;64.54;102910.59;4990615;28;20261;-43
2022/03/01 08:36:07;;;;;;;15.63;10.23;;;;;;;1.68;65.39;102910.75;4990397;28;20264;-47
2022/03/01 08:38:33;;;;;;;16.67;9.50;;;;;;;1.74;65.64;102905.66;4955600;28;20662;-44
2022/03/01 08:40:59;;;;;;;15.40;9.90;;;;;;;2.06;65.05;102898.72;4971143;28;20249;-46
2022/03/01 08:43:25;;;;;;;16.45;10.60;;;;;;;2.15;64.38;102924.56;4970237;28;20252;-47
2022/03/01 08:45:51;;;;;;;14.93;9.93;;;;;;;2.65;63.32;102915.44;4971875;28;20620;-46
2022/03/01 08:48:17;;;;;;;15.05;10.05;;;;;;;3.14;61.80;102897.31;4971046;28;20272;-45
2022/03/01 08:50:42;;;;;;;15.57;10.27;;;;;;;3.08;60.76;102911.31;4973088;28;20660;-47
2022/03/01 08:53:08;;;;;;;16.58;10.70;;;;;;;3.01;60.57;102919.03;5007205;28;20208;-48
2022/03/01 08:55:34;;;;;;;16.88;10.63;;;;;;;3.44;60.45;102914.84;5009581;28;20215;-43
2022/03/01 08:57:59;;;;;;;17.85;11.98;;;;;;;3.15;60.80;102900.84;5009815;28;20238;-44
2022/03/01 09:00:26;;;;;;;18.45;11.05;;;;;;;3.21;60.97;102903.66;5008825;28;20173;-46
2022/03/01 09:02:51;;;;;;;17.17;11.45;;;;;;;3.52;59.34;102905.34;5009754;28;20192;-45
2022/03/01 09:05:16;;;;;;;18.45;10.95;;;;;;;3.71;59.11;102912.84;5009596;28;20588;-45
2022/03/01 09:07:42;;;;;;;18.92;11.60;;;;;;;3.38;59.48;102910.28;5009786;28;20262;-43
2022/03/01 09:10:08;;;;;;;19.58;12.05;;;;;;;3.22;60.43;102903.72;5010404;28;20715;-45
2022/03/01 09:12:34;;;;;;;16.60;11.07;;;;;;;3.38;60.46;102909.41;5010184;28;20201;-42
2022/03/01 09:14:59;;;;;;;16.33;10.65;;;;;;;3.20;60.70;102910.72;5002765;28;20664;-42
2022/03/01 09:17:25;;;;;;;19.23;11.10;;;;;;;3.24;61.33;102909.06;4990078;28;20720;-45
2022/03/01 09:19:52;;;;;;;22.35;12.68;;;;;;;3.09;61.03;102913.09;4988614;28;20165;-42
2022/03/01 09:22:18;;;;;;;21.40;13.02;;;;;;;3.64;60.99;102905.63;4972513;28;20570;-43
2022/03/01 09:24:44;;;;;;;17.85;12.15;;;;;;;3.72;60.46;102904.06;4990627;28;20180;-43
2022/03/01 09:27:10;;;;;;;20.60;12.13;;;;;;;3.45;59.96;102901.63;4992109;28;20229;-43
2022/03/01 09:29:36;;;;;;;19.83;12.40;;;;;;;3.26;60.88;102905.59;4994110;28;20256;-44
2022/03/01 09:32:01;;;;;;;17.65;11.98;;;;;;;2.96;61.39;102918.91;4994254;28;20189;-45
2022/03/01 09:34:27;;;;;;;16.95;11.43;;;;;;;3.17;61.68;102897.41;4994395;28;20166;-43
2022/03/01 09:36:53;;;;;;;16.52;10.90;;;;;;;3.04;61.81;102903.22;4972481;28;20224;-43
2022/03/01 09:39:19;;;;;;;19.20;11.68;;;;;;;3.19;61.64;102903.66;4969051;28;20178;-44
2022/03/01 09:41:45;;;;;;;20.88;12.60;;;;;;;2.80;61.89;102907.03;4994872;28;20696;-42
2022/03/01 09:44:11;;;;;;;17.13;12.32;;;;;;;2.84;62.57;102890.38;4994982;28;20171;-45
2022/03/01 09:46:38;;;;;;;16.85;11.65;;;;;;;3.12;62.39;102901.69;4991864;28;20595;-42
2022/03/01 09:49:05;;;;;;;18.45;11.82;;;;;;;3.19;62.16;102897.44;4993287;28;20173;-47
2022/03/01 09:51:33;;;;;;;17.33;12.27;;;;;;;2.98;62.28;102900.44;4993469;28;20213;-43
2022/03/01 09:53:59;;;;;;;17.95;11.68;;;;;;;3.27;61.89;102891.47;4974894;28;20185;-41
2022/03/01 09:56:24;;;;;;;16.63;11.25;;;;;;;3.12;62.31;102888.44;4993501;28;20193;-46
2022/03/01 09:58:51;;;;;;;17.38;12.18;;;;;;;3.20;62.79;102902.78;4993797;28;20165;-43
2022/03/01 10:01:17;;;;;;;17.98;12.15;;;;;;;2.98;62.25;102900.44;4993713;28;20362;-42
2022/03/01 10:03:48;;;;;;;16.67;11.43;;;;;;;3.26;62.26;102899.41;4993519;28;20548;-44
2022/03/01 10:06:14;;;;;;;18.15;12.20;;;;;;;3.58;61.26;102897.53;4993670;28;20185;-42
2022/03/01 10:08:40;;;;;;;17.20;11.63;;;;;;;3.35;61.39;102894.31;4994330;28;20196;-43
2022/03/01 10:11:10;;;;;;;15.80;11.35;;;;;;;3.32;61.29;102888.03;4993258;28;20672;-42
2022/03/01 10:13:38;;;;;;;19.98;11.20;;;;;;;3.50;61.74;102892.06;4986873;28;20182;-43
2022/03/01 10:16:06;;;;;;;15.82;10.82;;;;;;;3.67;61.42;102895.13;4993684;28;20256;-43
2022/03/01 10:18:37;;;;;;;19.05;11.95;;;;;;;3.59;61.08;102895.78;4975327;28;20194;-43
2022/03/01 10:21:06;;;;;;;16.65;10.88;;;;;;;3.63;60.72;102893.25;4979442;28;20194;-43
2022/03/01 10:23:32;;;;;;;16.90;12.02;;;;;;;3.87;61.49;102894.66;4996177;28;20179;-46
2022/03/01 10:26:10;;;;;;;17.88;11.63;;;;;;;4.01;61.56;102910.91;4982428;28;20189;-43
2022/03/01 10:28:37;;;;;;;18.15;10.98;;;;;;;4.04;61.29;102905.66;4976594;28;20173;-43
2022/03/01 10:31:14;;;;;;;18.33;11.35;;;;;;;4.03;60.03;102911.81;4974913;28;20276;-43
2022/03/01 10:33:51;;;;;;;16.30;11.50;;;;;;;4.04;59.81;102911.84;4973761;28;20676;-44
2022/03/01 10:36:21;;;;;;;16.13;11.38;;;;;;;4.50;60.18;102899.59;4973463;28;20235;-44
2022/03/01 10:39:04;;;;;;;17.25;11.75;;;;;;;4.64;59.61;102883.91;4973346;28;20205;-42
2022/03/01 10:41:33;;;;;;;14.88;11.40;;;;;;;4.72;59.60;102884.97;4973465;28;20689;-46
2022/03/01 10:43:59;;;;;;;18.35;12.20;;;;;;;4.32;59.71;102876.19;4973473;28;20228;-46
2022/03/01 10:46:27;;;;;;;16.48;11.30;;;;;;;4.52;59.71;102865.97;4941062;28;20193;-43
2022/03/01 10:49:12;;;;;;;16.45;11.38;;;;;;;4.10;59.63;102866.88;4973266;28;20166;-47
2022/03/01 10:52:03;;;;;;;18.58;11.93;;;;;;;4.34;60.04;102865.63;4977382;28;20711;-43
2022/03/01 10:54:36;;;;;;;20.23;12.10;;;;;;;4.28;59.78;102874.31;4991978;28;20166;-43
2022/03/01 10:57:04;;;;;;;17.88;11.93;;;;;;;4.52;59.70;102873.03;4992430;28;20209;-42
2022/03/01 10:59:32;;;;;;;18.08;12.32;;;;;;;4.36;59.83;102857.69;4992755;28;20179;-43
2022/03/01 11:01:58;;;;;;;15.82;11.73;;;;;;;4.70;59.15;102843.28;4992490;28;20201;-44
2022/03/01 11:04:25;;;;;;;17.35;12.23;;;;;;;4.88;59.11;102859.56;4992579;28;20181;-46
2022/03/01 11:06:58;;;;;;;17.95;11.98;;;;;;;5.14;58.69;102857.38;4992683;28;20543;-48
2022/03/01 11:09:25;;;;;;;18.10;11.38;;;;;;;4.75;58.25;102850.50;4992879;28;20249;-47
2022/03/01 11:11:53;;;;;;;17.65;12.20;;;;;;;5.06;58.79;102855.47;4992622;28;20392;-42
2022/03/01 11:14:24;;;;;;;20.33;12.00;;;;;;;4.96;57.66;102846.41;4992443;28;20161;-42